sensor_id;sensor_type;location;lat;lon;timestamp;pressure;altitude;pressure_sealevel;temperature;humidity
22104;BME280;11218;48.886;9.426;2022-11-15T00:01:15;97853.06;;;11.82;70.72
22104;BME280;11218;48.886;9.426;2022-11-15T00:03:43;97849.28;;;11.83;69.93
22104;BME280;11218;48.886;9.426;2022-11-15T00:06:11;97848.75;;;11.92;69.60
22104;BME280;11218;48.886;9.426;2022-11-15T00:08:39;97838.00;;;11.97;69.64
22104;BME280;11218;48.886;9.426;2022-11-15T00:11:10;97843.38;;;11.87;70.26
22104;BME280;11218;48.886;9.426;2022-11-15T00:13:39;97835.53;;;11.90;69.72
22104;BME280;11218;48.886;9.426;2022-11-15T00:16:08;97842.00;;;11.84;70.43
22104;BME280;11218;48.886;9.426;2022-11-15T00:18:37;97840.59;;;11.76;70.57
22104;BME280;11218;48.886;9.426;2022-11-15T00:21:07;97837.59;;;11.73;70.80
22104;BME280;11218;48.886;9.426;2022-11-15T00:23:35;97839.78;;;11.76;70.99
22104;BME280;11218;48.886;9.426;2022-11-15T00:26:05;97837.34;;;11.74;70.89
22104;BME280;11218;48.886;9.426;2022-11-15T00:28:33;97833.56;;;11.70;71.04
22104;BME280;11218;48.886;9.426;2022-11-15T00:31:01;97834.88;;;11.68;71.35
22104;BME280;11218;48.886;9.426;2022-11-15T00:33:31;97840.53;;;11.66;71.48
22104;BME280;11218;48.886;9.426;2022-11-15T00:36:00;97835.41;;;11.65;71.47
22104;BME280;11218;48.886;9.426;2022-11-15T00:38:31;97845.13;;;11.66;70.93
22104;BME280;11218;48.886;9.426;2022-11-15T00:41:00;97840.78;;;11.65;71.57
22104;BME280;11218;48.886;9.426;2022-11-15T00:43:35;97845.66;;;11.68;70.61
22104;BME280;11218;48.886;9.426;2022-11-15T00:46:03;97836.06;;;11.82;70.13
22104;BME280;11218;48.886;9.426;2022-11-15T00:48:32;97830.06;;;11.75;70.22
22104;BME280;11218;48.886;9.426;2022-11-15T00:51:00;97839.50;;;11.72;70.66
22104;BME280;11218;48.886;9.426;2022-11-15T00:53:28;97828.69;;;11.67;71.11
22104;BME280;11218;48.886;9.426;2022-11-15T00:55:56;97829.81;;;11.76;70.44
22104;BME280;11218;48.886;9.426;2022-11-15T00:58:24;97820.06;;;11.70;70.34
22104;BME280;11218;48.886;9.426;2022-11-15T01:00:52;97824.94;;;11.73;70.02
22104;BME280;11218;48.886;9.426;2022-11-15T01:03:21;97819.25;;;11.70;70.91
22104;BME280;11218;48.886;9.426;2022-11-15T01:05:50;97823.28;;;11.67;70.96
22104;BME280;11218;48.886;9.426;2022-11-15T01:08:18;97810.59;;;11.63;71.50
22104;BME280;11218;48.886;9.426;2022-11-15T01:10:46;97810.84;;;11.61;71.13
22104;BME280;11218;48.886;9.426;2022-11-15T01:13:14;97807.88;;;11.58;71.11
22104;BME280;11218;48.886;9.426;2022-11-15T01:15:42;97803.56;;;11.57;71.47
22104;BME280;11218;48.886;9.426;2022-11-15T01:18:10;97804.34;;;11.57;71.06
22104;BME280;11218;48.886;9.426;2022-11-15T01:20:39;97797.34;;;11.56;71.12
22104;BME280;11218;48.886;9.426;2022-11-15T01:23:09;97794.94;;;11.60;71.13
22104;BME280;11218;48.886;9.426;2022-11-15T01:25:37;97790.59;;;11.53;71.51
22104;BME280;11218;48.886;9.426;2022-11-15T01:28:05;97781.41;;;11.49;71.52
22104;BME280;11218;48.886;9.426;2022-11-15T01:30:35;97784.63;;;11.46;70.85
22104;BME280;11218;48.886;9.426;2022-11-15T01:33:03;97783.25;;;11.44;71.52
22104;BME280;11218;48.886;9.426;2022-11-15T01:35:31;97778.66;;;11.39;71.11
22104;BME280;11218;48.886;9.426;2022-11-15T01:37:59;97780.78;;;11.32;71.33
22104;BME280;11218;48.886;9.426;2022-11-15T01:40:28;97778.81;;;11.23;71.84
22104;BME280;11218;48.886;9.426;2022-11-15T01:42:56;97775.06;;;11.24;71.38
22104;BME280;11218;48.886;9.426;2022-11-15T01:45:24;97777.75;;;11.24;71.45
22104;BME280;11218;48.886;9.426;2022-11-15T01:47:54;97780.16;;;11.20;71.35
22104;BME280;11218;48.886;9.426;2022-11-15T01:50:26;97782.03;;;11.19;71.66
22104;BME280;11218;48.886;9.426;2022-11-15T01:52:55;97785.81;;;11.13;71.80
22104;BME280;11218;48.886;9.426;2022-11-15T01:55:25;97774.22;;;11.13;72.14
22104;BME280;11218;48.886;9.426;2022-11-15T01:57:57;97785.81;;;11.13;72.44
22104;BME280;11218;48.886;9.426;2022-11-15T02:00:25;97774.72;;;11.10;72.49
22104;BME280;11218;48.886;9.426;2022-11-15T02:02:53;97772.84;;;11.10;72.48
22104;BME280;11218;48.886;9.426;2022-11-15T02:05:22;97771.22;;;11.09;72.12
22104;BME280;11218;48.886;9.426;2022-11-15T02:07:52;97766.41;;;11.11;72.45
22104;BME280;11218;48.886;9.426;2022-11-15T02:10:21;97770.44;;;11.14;72.03
22104;BME280;11218;48.886;9.426;2022-11-15T02:12:50;97756.97;;;11.14;72.04
22104;BME280;11218;48.886;9.426;2022-11-15T02:15:20;97757.50;;;11.11;72.68
22104;BME280;11218;48.886;9.426;2022-11-15T02:17:58;97761.56;;;11.13;72.66
22104;BME280;11218;48.886;9.426;2022-11-15T02:20:40;97752.94;;;11.11;72.47
22104;BME280;11218;48.886;9.426;2022-11-15T02:26:24;97755.31;;;11.08;72.59
22104;BME280;11218;48.886;9.426;2022-11-15T02:29:02;97743.19;;;11.05;72.66
22104;BME280;11218;48.886;9.426;2022-11-15T02:31:36;97738.88;;;11.04;72.60
22104;BME280;11218;48.886;9.426;2022-11-15T02:34:16;97738.88;;;11.04;72.97
22104;BME280;11218;48.886;9.426;2022-11-15T02:36:56;97738.31;;;11.02;73.47
22104;BME280;11218;48.886;9.426;2022-11-15T02:39:30;97731.84;;;10.98;73.56
22104;BME280;11218;48.886;9.426;2022-11-15T02:42:03;97735.34;;;10.99;73.57
22104;BME280;11218;48.886;9.426;2022-11-15T02:44:53;97736.44;;;11.03;73.38
22104;BME280;11218;48.886;9.426;2022-11-15T02:47:24;97723.75;;;10.98;73.02
22104;BME280;11218;48.886;9.426;2022-11-15T02:49:58;97733.16;;;10.96;73.41
22104;BME280;11218;48.886;9.426;2022-11-15T02:52:28;97714.03;;;10.92;73.55
22104;BME280;11218;48.886;9.426;2022-11-15T02:54:57;97720.72;;;10.90;73.90
22104;BME280;11218;48.886;9.426;2022-11-15T02:57:38;97721.00;;;10.88;73.93
22104;BME280;11218;48.886;9.426;2022-11-15T03:00:08;97711.56;;;10.85;74.25
22104;BME280;11218;48.886;9.426;2022-11-15T03:03:00;97710.75;;;10.85;74.47
22104;BME280;11218;48.886;9.426;2022-11-15T03:05:35;97712.06;;;10.82;74.01
22104;BME280;11218;48.886;9.426;2022-11-15T03:08:09;97707.75;;;10.81;74.40
22104;BME280;11218;48.886;9.426;2022-11-15T03:10:44;97713.66;;;10.78;74.54
22104;BME280;11218;48.886;9.426;2022-11-15T03:13:21;97707.47;;;10.78;74.48
22104;BME280;11218;48.886;9.426;2022-11-15T03:15:58;97703.41;;;10.75;74.45
22104;BME280;11218;48.886;9.426;2022-11-15T03:18:33;97699.91;;;10.75;74.34
22104;BME280;11218;48.886;9.426;2022-11-15T03:21:07;97697.47;;;10.73;74.77
22104;BME280;11218;48.886;9.426;2022-11-15T03:23:36;97693.66;;;10.69;74.71
22104;BME280;11218;48.886;9.426;2022-11-15T03:26:07;97694.19;;;10.66;74.81
22104;BME280;11218;48.886;9.426;2022-11-15T03:28:37;97698.22;;;10.64;75.32
22104;BME280;11218;48.886;9.426;2022-11-15T03:31:08;97689.28;;;10.58;75.25
22104;BME280;11218;48.886;9.426;2022-11-15T03:33:57;97690.63;;;10.56;74.82
22104;BME280;11218;48.886;9.426;2022-11-15T03:36:27;97688.69;;;10.51;75.09
22104;BME280;11218;48.886;9.426;2022-11-15T03:38:59;97669.81;;;10.46;75.36
22104;BME280;11218;48.886;9.426;2022-11-15T03:41:32;97682.16;;;10.42;75.84
22104;BME280;11218;48.886;9.426;2022-11-15T03:44:11;97678.66;;;10.36;75.99
22104;BME280;11218;48.886;9.426;2022-11-15T03:46:46;97680.50;;;10.31;76.68
22104;BME280;11218;48.886;9.426;2022-11-15T03:49:19;97676.94;;;10.25;77.07
22104;BME280;11218;48.886;9.426;2022-11-15T03:51:50;97673.88;;;10.16;77.69
22104;BME280;11218;48.886;9.426;2022-11-15T03:54:18;97679.22;;;10.11;78.09
22104;BME280;11218;48.886;9.426;2022-11-15T03:56:45;97681.84;;;10.06;78.50
22104;BME280;11218;48.886;9.426;2022-11-15T03:59:13;97675.38;;;10.02;78.50
22104;BME280;11218;48.886;9.426;2022-11-15T04:01:41;97675.81;;;9.94;78.68
22104;BME280;11218;48.886;9.426;2022-11-15T04:04:09;97671.22;;;9.89;78.39
22104;BME280;11218;48.886;9.426;2022-11-15T04:06:38;97663.66;;;9.86;78.66
22104;BME280;11218;48.886;9.426;2022-11-15T04:09:06;97662.03;;;9.85;78.99
22104;BME280;11218;48.886;9.426;2022-11-15T04:11:34;97669.28;;;9.85;78.88
22104;BME280;11218;48.886;9.426;2022-11-15T04:14:02;97655.84;;;9.85;79.11
22104;BME280;11218;48.886;9.426;2022-11-15T04:16:30;97661.78;;;9.87;78.91
22104;BME280;11218;48.886;9.426;2022-11-15T04:18:58;97662.84;;;9.86;78.57
22104;BME280;11218;48.886;9.426;2022-11-15T04:21:45;97658.78;;;9.83;79.04
22104;BME280;11218;48.886;9.426;2022-11-15T04:24:30;97656.34;;;9.82;78.56
22104;BME280;11218;48.886;9.426;2022-11-15T04:26:58;97664.16;;;9.83;78.57
22104;BME280;11218;48.886;9.426;2022-11-15T04:29:26;97663.09;;;9.84;78.55
22104;BME280;11218;48.886;9.426;2022-11-15T04:32:03;97669.53;;;9.83;78.50
22104;BME280;11218;48.886;9.426;2022-11-15T04:34:32;97658.78;;;9.83;78.45
22104;BME280;11218;48.886;9.426;2022-11-15T04:37:02;97657.97;;;9.83;78.65
22104;BME280;11218;48.886;9.426;2022-11-15T04:39:43;97656.09;;;9.83;78.37
22104;BME280;11218;48.886;9.426;2022-11-15T04:42:11;97657.97;;;9.83;78.53
22104;BME280;11218;48.886;9.426;2022-11-15T04:44:38;97660.66;;;9.83;78.40
22104;BME280;11218;48.886;9.426;2022-11-15T04:47:06;97657.16;;;9.82;78.47
22104;BME280;11218;48.886;9.426;2022-11-15T04:49:34;97652.28;;;9.79;78.52
22104;BME280;11218;48.886;9.426;2022-11-15T04:52:04;97654.69;;;9.76;78.75
22104;BME280;11218;48.886;9.426;2022-11-15T04:54:31;97652.50;;;9.73;79.06
22104;BME280;11218;48.886;9.426;2022-11-15T04:56:59;97656.50;;;9.70;79.10
22104;BME280;11218;48.886;9.426;2022-11-15T04:59:27;97654.31;;;9.67;79.16
22104;BME280;11218;48.886;9.426;2022-11-15T05:01:55;97650.00;;;9.66;79.41
22104;BME280;11218;48.886;9.426;2022-11-15T05:04:23;97638.19;;;9.62;79.31
22104;BME280;11218;48.886;9.426;2022-11-15T05:06:51;97638.44;;;9.61;79.30
22104;BME280;11218;48.886;9.426;2022-11-15T05:09:21;97649.44;;;9.59;79.19
22104;BME280;11218;48.886;9.426;2022-11-15T05:11:49;97645.38;;;9.57;79.42
22104;BME280;11218;48.886;9.426;2022-11-15T05:14:17;97639.19;;;9.56;79.47
22104;BME280;11218;48.886;9.426;2022-11-15T05:16:45;97634.63;;;9.57;79.08
22104;BME280;11218;48.886;9.426;2022-11-15T05:19:13;97627.38;;;9.57;78.93
22104;BME280;11218;48.886;9.426;2022-11-15T05:21:41;97630.13;;;9.62;79.04
22104;BME280;11218;48.886;9.426;2022-11-15T05:24:09;97625.66;;;9.78;78.21
22104;BME280;11218;48.886;9.426;2022-11-15T05:26:39;97632.91;;;9.77;78.18
22104;BME280;11218;48.886;9.426;2022-11-15T05:29:09;97627.94;;;9.91;77.63
22104;BME280;11218;48.886;9.426;2022-11-15T05:31:39;97632.81;;;9.94;77.33
22104;BME280;11218;48.886;9.426;2022-11-15T05:34:07;97629.34;;;9.99;77.72
22104;BME280;11218;48.886;9.426;2022-11-15T05:36:37;97620.28;;;10.05;77.30
22104;BME280;11218;48.886;9.426;2022-11-15T05:39:06;97622.41;;;10.03;77.35
22104;BME280;11218;48.886;9.426;2022-11-15T05:41:39;97623.25;;;10.08;77.51
22104;BME280;11218;48.886;9.426;2022-11-15T05:44:10;97622.69;;;10.06;77.68
22104;BME280;11218;48.886;9.426;2022-11-15T05:46:40;97620.00;;;10.06;77.71
22104;BME280;11218;48.886;9.426;2022-11-15T05:49:12;97626.72;;;10.04;77.82
22104;BME280;11218;48.886;9.426;2022-11-15T05:51:42;97621.59;;;10.02;77.51
22104;BME280;11218;48.886;9.426;2022-11-15T05:54:12;97610.31;;;10.05;76.97
22104;BME280;11218;48.886;9.426;2022-11-15T05:56:43;97611.09;;;10.01;77.16
22104;BME280;11218;48.886;9.426;2022-11-15T05:59:11;97614.28;;;9.98;77.17
22104;BME280;11218;48.886;9.426;2022-11-15T06:01:40;97610.28;;;10.00;77.24
22104;BME280;11218;48.886;9.426;2022-11-15T06:04:08;97616.72;;;9.99;76.88
22104;BME280;11218;48.886;9.426;2022-11-15T06:06:37;97616.16;;;9.97;76.99
22104;BME280;11218;48.886;9.426;2022-11-15T06:09:05;97607.34;;;10.02;76.52
22104;BME280;11218;48.886;9.426;2022-11-15T06:11:33;97609.22;;;10.01;76.82
22104;BME280;11218;48.886;9.426;2022-11-15T06:14:02;97612.16;;;10.00;76.74
22104;BME280;11218;48.886;9.426;2022-11-15T06:16:30;97613.53;;;10.02;76.74
22104;BME280;11218;48.886;9.426;2022-11-15T06:18:58;97612.75;;;10.07;76.41
22104;BME280;11218;48.886;9.426;2022-11-15T06:21:26;97613.31;;;10.09;76.42
22104;BME280;11218;48.886;9.426;2022-11-15T06:23:55;97620.59;;;10.13;76.01
22104;BME280;11218;48.886;9.426;2022-11-15T06:26:23;97623.03;;;10.15;75.91
22104;BME280;11218;48.886;9.426;2022-11-15T06:28:51;97626.84;;;10.19;75.62
22104;BME280;11218;48.886;9.426;2022-11-15T06:31:20;97623.34;;;10.18;75.72
22104;BME280;11218;48.886;9.426;2022-11-15T06:33:48;97624.41;;;10.17;75.37
22104;BME280;11218;48.886;9.426;2022-11-15T06:36:17;97621.16;;;10.15;75.49
22104;BME280;11218;48.886;9.426;2022-11-15T06:38:45;97623.28;;;10.13;76.17
22104;BME280;11218;48.886;9.426;2022-11-15T06:41:13;97619.28;;;10.16;75.83
22104;BME280;11218;48.886;9.426;2022-11-15T06:43:43;97614.41;;;10.13;75.96
22104;BME280;11218;48.886;9.426;2022-11-15T06:46:11;97622.47;;;10.13;75.60
22104;BME280;11218;48.886;9.426;2022-11-15T06:48:40;97615.53;;;10.17;75.67
22104;BME280;11218;48.886;9.426;2022-11-15T06:51:08;97621.69;;;10.12;75.82
22104;BME280;11218;48.886;9.426;2022-11-15T06:53:36;97612.78;;;10.12;75.90
22104;BME280;11218;48.886;9.426;2022-11-15T06:56:05;97620.56;;;10.08;76.24
22104;BME280;11218;48.886;9.426;2022-11-15T06:58:34;97620.06;;;10.11;75.53
22104;BME280;11218;48.886;9.426;2022-11-15T07:01:03;97613.47;;;10.24;74.97
22104;BME280;11218;48.886;9.426;2022-11-15T07:03:34;97621.56;;;10.29;74.26
22104;BME280;11218;48.886;9.426;2022-11-15T07:06:03;97620.28;;;10.42;73.65
22104;BME280;11218;48.886;9.426;2022-11-15T07:08:33;97614.13;;;10.46;73.43
22104;BME280;11218;48.886;9.426;2022-11-15T07:11:03;97624.63;;;10.48;72.94
22104;BME280;11218;48.886;9.426;2022-11-15T07:13:32;97621.13;;;10.47;73.13
22104;BME280;11218;48.886;9.426;2022-11-15T07:16:02;97623.53;;;10.39;74.08
22104;BME280;11218;48.886;9.426;2022-11-15T07:18:30;97622.66;;;10.33;74.50
22104;BME280;11218;48.886;9.426;2022-11-15T07:21:01;97622.63;;;10.28;74.74
22104;BME280;11218;48.886;9.426;2022-11-15T07:23:31;97622.59;;;10.23;75.08
22104;BME280;11218;48.886;9.426;2022-11-15T07:25:59;97622.53;;;10.18;75.05
22104;BME280;11218;48.886;9.426;2022-11-15T07:28:28;97622.47;;;10.13;75.71
22104;BME280;11218;48.886;9.426;2022-11-15T07:30:56;97613.06;;;10.10;76.33
22104;BME280;11218;48.886;9.426;2022-11-15T07:33:24;97624.63;;;10.11;76.10
22104;BME280;11218;48.886;9.426;2022-11-15T07:35:53;97627.56;;;10.09;76.21
22104;BME280;11218;48.886;9.426;2022-11-15T07:38:21;97621.63;;;10.07;76.36
22104;BME280;11218;48.886;9.426;2022-11-15T07:40:57;97627.25;;;10.06;76.99
22104;BME280;11218;48.886;9.426;2022-11-15T07:43:25;97624.56;;;10.06;76.78
22104;BME280;11218;48.886;9.426;2022-11-15T07:45:54;97627.53;;;10.04;77.28
22104;BME280;11218;48.886;9.426;2022-11-15T07:48:25;97630.50;;;10.08;77.22
22104;BME280;11218;48.886;9.426;2022-11-15T07:51:11;97630.28;;;10.14;76.70
22104;BME280;11218;48.886;9.426;2022-11-15T07:53:40;97627.69;;;10.19;76.88
22104;BME280;11218;48.886;9.426;2022-11-15T07:56:09;97627.72;;;10.25;76.29
22104;BME280;11218;48.886;9.426;2022-11-15T07:58:38;97633.13;;;10.30;76.50
22104;BME280;11218;48.886;9.426;2022-11-15T08:01:07;97632.38;;;10.34;76.83
22104;BME280;11218;48.886;9.426;2022-11-15T08:03:38;97620.81;;;10.39;76.79
22104;BME280;11218;48.886;9.426;2022-11-15T08:06:06;97617.06;;;10.45;76.76
22104;BME280;11218;48.886;9.426;2022-11-15T08:08:34;97615.78;;;10.52;76.54
22104;BME280;11218;48.886;9.426;2022-11-15T08:11:02;97609.66;;;10.62;76.25
22104;BME280;11218;48.886;9.426;2022-11-15T08:13:32;97612.91;;;10.69;76.41
22104;BME280;11218;48.886;9.426;2022-11-15T08:16:01;97603.53;;;10.77;75.81
22104;BME280;11218;48.886;9.426;2022-11-15T08:18:31;97612.47;;;10.88;75.59
22104;BME280;11218;48.886;9.426;2022-11-15T08:20:59;97602.00;;;10.96;75.60
22104;BME280;11218;48.886;9.426;2022-11-15T08:23:28;97602.59;;;11.03;75.10
22104;BME280;11218;48.886;9.426;2022-11-15T08:26:00;97604.50;;;11.13;75.06
22104;BME280;11218;48.886;9.426;2022-11-15T08:28:29;97599.91;;;11.18;75.13
22104;BME280;11218;48.886;9.426;2022-11-15T08:30:59;97595.66;;;11.28;74.63
22104;BME280;11218;48.886;9.426;2022-11-15T08:33:27;97598.63;;;11.36;75.02
22104;BME280;11218;48.886;9.426;2022-11-15T08:35:56;97587.88;;;11.46;74.57
22104;BME280;11218;48.886;9.426;2022-11-15T08:38:24;97589.53;;;11.58;74.48
22104;BME280;11218;48.886;9.426;2022-11-15T08:41:00;97588.72;;;11.72;73.38
22104;BME280;11218;48.886;9.426;2022-11-15T08:43:29;97590.66;;;11.82;73.32
22104;BME280;11218;48.886;9.426;2022-11-15T08:45:59;97581.19;;;11.90;73.13
22104;BME280;11218;48.886;9.426;2022-11-15T08:48:27;97584.16;;;11.98;72.89
22104;BME280;11218;48.886;9.426;2022-11-15T08:50:55;97577.97;;;12.03;72.91
22104;BME280;11218;48.886;9.426;2022-11-15T08:53:23;97580.66;;;12.08;72.48
22104;BME280;11218;48.886;9.426;2022-11-15T08:55:51;97584.16;;;12.08;72.95
22104;BME280;11218;48.886;9.426;2022-11-15T08:58:19;97575.53;;;12.06;72.99
22104;BME280;11218;48.886;9.426;2022-11-15T09:00:47;97567.72;;;12.05;73.41
22104;BME280;11218;48.886;9.426;2022-11-15T09:03:17;97569.59;;;12.04;74.01
22104;BME280;11218;48.886;9.426;2022-11-15T09:05:44;97574.72;;;12.06;73.98
22104;BME280;11218;48.886;9.426;2022-11-15T09:08:12;97567.16;;;12.13;73.50
22104;BME280;11218;48.886;9.426;2022-11-15T09:11:03;97567.16;;;12.18;74.44
22104;BME280;11218;48.886;9.426;2022-11-15T09:13:32;97564.19;;;12.25;73.72
22104;BME280;11218;48.886;9.426;2022-11-15T09:16:00;97556.63;;;12.32;73.18
22104;BME280;11218;48.886;9.426;2022-11-15T09:18:30;97566.06;;;12.29;73.06
22104;BME280;11218;48.886;9.426;2022-11-15T09:20:59;97563.38;;;12.29;73.76
22104;BME280;11218;48.886;9.426;2022-11-15T09:23:28;97562.03;;;12.32;74.21
22104;BME280;11218;48.886;9.426;2022-11-15T09:26:00;97549.59;;;12.36;74.54
22104;BME280;11218;48.886;9.426;2022-11-15T09:28:29;97550.66;;;12.40;74.85
22104;BME280;11218;48.886;9.426;2022-11-15T09:30:58;97540.66;;;12.45;75.23
22104;BME280;11218;48.886;9.426;2022-11-15T09:33:27;97550.66;;;12.50;74.75
22104;BME280;11218;48.886;9.426;2022-11-15T09:36:01;97546.31;;;12.54;74.42
22104;BME280;11218;48.886;9.426;2022-11-15T09:38:29;97554.41;;;12.59;75.37
22104;BME280;11218;48.886;9.426;2022-11-15T09:41:17;97544.94;;;12.62;75.02
22104;BME280;11218;48.886;9.426;2022-11-15T09:43:57;97544.63;;;12.68;74.67
22104;BME280;11218;48.886;9.426;2022-11-15T09:46:37;97541.88;;;12.78;74.97
22104;BME280;11218;48.886;9.426;2022-11-15T09:49:13;97536.69;;;12.92;73.98
22104;BME280;11218;48.886;9.426;2022-11-15T09:51:45;97535.88;;;12.97;73.73
22104;BME280;11218;48.886;9.426;2022-11-15T09:54:23;97532.88;;;13.03;73.21
22104;BME280;11218;48.886;9.426;2022-11-15T09:57:15;97542.53;;;13.14;73.44
22104;BME280;11218;48.886;9.426;2022-11-15T09:59:54;97533.31;;;13.26;73.01
22104;BME280;11218;48.886;9.426;2022-11-15T10:02:54;97538.03;;;13.49;72.03
22104;BME280;11218;48.886;9.426;2022-11-15T10:05:25;97530.09;;;13.63;72.72
22104;BME280;11218;48.886;9.426;2022-11-15T10:08:00;97525.56;;;13.87;71.68
22104;BME280;11218;48.886;9.426;2022-11-15T10:10:36;97527.34;;;14.02;71.52
22104;BME280;11218;48.886;9.426;2022-11-15T10:13:07;97523.06;;;14.20;69.38
22104;BME280;11218;48.886;9.426;2022-11-15T10:15:42;97521.84;;;14.36;68.18
22104;BME280;11218;48.886;9.426;2022-11-15T10:18:16;97514.09;;;14.53;66.86
22104;BME280;11218;48.886;9.426;2022-11-15T10:20:48;97521.31;;;14.63;66.10
22104;BME280;11218;48.886;9.426;2022-11-15T10:23:20;97513.63;;;14.70;65.31
22104;BME280;11218;48.886;9.426;2022-11-15T10:25:51;97512.84;;;14.69;64.27
22104;BME280;11218;48.886;9.426;2022-11-15T10:28:22;97513.41;;;14.66;64.61
22104;BME280;11218;48.886;9.426;2022-11-15T10:30:52;97511.78;;;14.65;64.35
22104;BME280;11218;48.886;9.426;2022-11-15T10:33:30;97504.25;;;14.62;63.95
22104;BME280;11218;48.886;9.426;2022-11-15T10:36:18;97494.50;;;14.61;64.17
22104;BME280;11218;48.886;9.426;2022-11-15T10:38:54;97488.28;;;14.61;64.28
22104;BME280;11218;48.886;9.426;2022-11-15T10:41:29;97493.47;;;14.57;63.72
22104;BME280;11218;48.886;9.426;2022-11-15T10:47:22;97488.91;;;14.53;63.96
22104;BME280;11218;48.886;9.426;2022-11-15T10:49:57;97480.78;;;14.53;64.70
22104;BME280;11218;48.886;9.426;2022-11-15T10:52:27;97477.56;;;14.51;65.17
22104;BME280;11218;48.886;9.426;2022-11-15T10:55:01;97474.34;;;14.49;65.32
22104;BME280;11218;48.886;9.426;2022-11-15T10:57:32;97467.59;;;14.46;66.43
22104;BME280;11218;48.886;9.426;2022-11-15T11:00:04;97465.41;;;14.48;66.80
22104;BME280;11218;48.886;9.426;2022-11-15T11:02:35;97456.19;;;14.49;66.42
22104;BME280;11218;48.886;9.426;2022-11-15T11:05:05;97459.94;;;14.53;66.50
22104;BME280;11218;48.886;9.426;2022-11-15T11:07:34;97452.63;;;14.54;67.04
22104;BME280;11218;48.886;9.426;2022-11-15T11:10:19;97458.03;;;14.54;66.73
22104;BME280;11218;48.886;9.426;2022-11-15T11:13:14;97466.16;;;14.54;67.10
22104;BME280;11218;48.886;9.426;2022-11-15T11:15:44;97458.31;;;14.52;66.93
22104;BME280;11218;48.886;9.426;2022-11-15T11:18:19;97459.41;;;14.51;67.49
22104;BME280;11218;48.886;9.426;2022-11-15T11:20:51;97455.91;;;14.51;67.93
22104;BME280;11218;48.886;9.426;2022-11-15T11:23:41;97454.56;;;14.48;67.67
22104;BME280;11218;48.886;9.426;2022-11-15T11:26:29;97451.34;;;14.46;67.65
22104;BME280;11218;48.886;9.426;2022-11-15T11:29:05;97442.72;;;14.44;68.14
22104;BME280;11218;48.886;9.426;2022-11-15T11:31:43;97453.25;;;14.45;68.24
22104;BME280;11218;48.886;9.426;2022-11-15T11:34:23;97450.53;;;14.45;69.22
22104;BME280;11218;48.886;9.426;2022-11-15T11:37:01;97454.88;;;14.46;68.74
22104;BME280;11218;48.886;9.426;2022-11-15T11:39:41;97450.25;;;14.47;69.32
22104;BME280;11218;48.886;9.426;2022-11-15T11:42:22;97445.13;;;14.45;69.25
22104;BME280;11218;48.886;9.426;2022-11-15T11:44:58;97446.16;;;14.50;69.52
22104;BME280;11218;48.886;9.426;2022-11-15T11:47:32;97446.63;;;14.57;70.20
22104;BME280;11218;48.886;9.426;2022-11-15T11:50:12;97438.13;;;14.63;70.63
22104;BME280;11218;48.886;9.426;2022-11-15T11:52:48;97436.47;;;14.67;69.71
22104;BME280;11218;48.886;9.426;2022-11-15T11:55:21;97428.19;;;14.77;69.11
22104;BME280;11218;48.886;9.426;2022-11-15T11:57:59;97427.31;;;14.82;69.00
22104;BME280;11218;48.886;9.426;2022-11-15T12:00:32;97423.63;;;14.92;68.92
22104;BME280;11218;48.886;9.426;2022-11-15T12:03:09;97416.81;;;14.94;68.85
22104;BME280;11218;48.886;9.426;2022-11-15T12:05:42;97412.44;;;14.98;68.75
22104;BME280;11218;48.886;9.426;2022-11-15T12:08:24;97411.31;;;14.99;67.96
22104;BME280;11218;48.886;9.426;2022-11-15T12:11:07;97402.41;;;14.99;68.12
22104;BME280;11218;48.886;9.426;2022-11-15T12:13:38;97398.59;;;15.00;68.69
22104;BME280;11218;48.886;9.426;2022-11-15T12:16:12;97394.19;;;15.04;68.75
22104;BME280;11218;48.886;9.426;2022-11-15T12:18:45;97390.88;;;15.07;68.50
22104;BME280;11218;48.886;9.426;2022-11-15T12:21:18;97390.72;;;15.17;68.61
22104;BME280;11218;48.886;9.426;2022-11-15T12:23:58;97381.41;;;15.23;66.97
22104;BME280;11218;48.886;9.426;2022-11-15T12:26:32;97385.28;;;15.36;66.92
22104;BME280;11218;48.886;9.426;2022-11-15T12:29:05;97378.06;;;15.45;65.82
22104;BME280;11218;48.886;9.426;2022-11-15T12:31:39;97371.28;;;15.61;65.27
22104;BME280;11218;48.886;9.426;2022-11-15T12:34:34;97375.72;;;15.71;64.48
22104;BME280;11218;48.886;9.426;2022-11-15T12:40:24;97372.09;;;15.62;63.89
22104;BME280;11218;48.886;9.426;2022-11-15T12:43:04;97377.91;;;15.55;63.80
22104;BME280;11218;48.886;9.426;2022-11-15T12:45:35;97382.91;;;15.48;64.05
22104;BME280;11218;48.886;9.426;2022-11-15T12:55:02;97370.63;;;15.37;64.08
22104;BME280;11218;48.886;9.426;2022-11-15T12:57:41;97365.88;;;15.29;64.58
22104;BME280;11218;48.886;9.426;2022-11-15T13:00:44;97374.31;;;15.27;65.26
22104;BME280;11218;48.886;9.426;2022-11-15T13:03:26;97364.94;;;15.20;66.19
22104;BME280;11218;48.886;9.426;2022-11-15T13:06:06;97361.50;;;15.14;66.28
22104;BME280;11218;48.886;9.426;2022-11-15T13:08:44;97358.06;;;15.08;65.90
22104;BME280;11218;48.886;9.426;2022-11-15T13:11:49;97357.84;;;15.05;65.97
22104;BME280;11218;48.886;9.426;2022-11-15T13:14:49;97354.13;;;15.01;65.21
22104;BME280;11218;48.886;9.426;2022-11-15T13:17:30;97347.88;;;15.00;65.58
22104;BME280;11218;48.886;9.426;2022-11-15T13:20:18;97347.09;;;15.00;65.39
22104;BME280;11218;48.886;9.426;2022-11-15T13:22:47;97343.88;;;14.98;65.48
22104;BME280;11218;48.886;9.426;2022-11-15T13:25:21;97339.47;;;15.02;65.10
22104;BME280;11218;48.886;9.426;2022-11-15T13:27:52;97341.97;;;14.98;65.64
22104;BME280;11218;48.886;9.426;2022-11-15T13:30:22;97334.94;;;14.97;66.61
22104;BME280;11218;48.886;9.426;2022-11-15T13:32:52;97322.78;;;14.95;66.75
22104;BME280;11218;48.886;9.426;2022-11-15T13:35:22;97324.69;;;14.94;66.92
22104;BME280;11218;48.886;9.426;2022-11-15T13:37:54;97318.44;;;14.94;66.88
22104;BME280;11218;48.886;9.426;2022-11-15T13:40:33;97313.41;;;14.87;66.81
22104;BME280;11218;48.886;9.426;2022-11-15T13:43:17;97311.22;;;14.89;66.29
22104;BME280;11218;48.886;9.426;2022-11-15T13:46:07;97310.69;;;14.87;66.54